Time,TemperatureF,DewpointF,PressureIn,WindDirection,WindDirectionDegrees,WindSpeedMPH,WindSpeedGustMPH,Humidity,HourlyPrecipIn,Conditions,Clouds,dailyrainin,SoftwareType,DateUTC
2013-02-11 00:00:00,14.7,10.5,30.39,SW,219,0.0,0.0,83,0.00,,CLR,0.00,VWS V14.00,2013-02-11 05:00:00,
2013-02-11 00:01:00,14.5,10.1,30.39,SW,219,0.0,0.0,82,0.00,,CLR,0.00,VWS V14.00,2013-02-11 05:01:00,
2013-02-11 00:06:00,14.5,10.1,30.39,SW,219,0.0,0.0,82,0.00,,CLR,0.00,VWS V14.00,2013-02-11 05:06:00,
2013-02-11 00:13:00,14.4,9.9,30.39,SW,219,0.0,0.0,82,0.00,,CLR,0.00,VWS V14.00,2013-02-11 05:13:00,
2013-02-11 00:20:00,14.4,9.9,30.39,SW,219,0.0,0.0,82,0.00,,CLR,0.00,VWS V14.00,2013-02-11 05:20:00,
2013-02-11 00:27:00,14.4,9.9,30.39,SW,219,0.0,0.0,82,0.00,,CLR,0.00,VWS V14.00,2013-02-11 05:27:00,
2013-02-11 00:34:00,14.4,9.9,30.39,SW,219,0.0,0.0,82,0.00,,CLR,0.00,VWS V14.00,2013-02-11 05:34:00,
2013-02-11 00:40:00,14.4,9.6,30.39,SW,219,0.0,0.0,81,0.00,,CLR,0.00,VWS V14.00,2013-02-11 05:40:00,
2013-02-11 00:46:00,14.2,9.4,30.39,SW,219,0.0,0.0,81,0.00,,CLR,0.00,VWS V14.00,2013-02-11 05:46:00,
2013-02-11 00:53:00,14.2,9.4,30.39,SW,219,0.0,0.0,81,0.00,,CLR,0.00,VWS V14.00,2013-02-11 05:53:00,
2013-02-11 01:00:00,14.2,9.4,30.39,SW,219,0.0,0.0,81,0.00,,CLR,0.00,VWS V14.00,2013-02-11 06:00:00,
2013-02-11 01:07:00,14.4,9.6,30.39,SW,219,0.0,0.0,81,0.00,,CLR,0.00,VWS V14.00,2013-02-11 06:07:00,
2013-02-11 01:14:00,14.4,9.6,30.39,SW,219,0.0,0.0,81,0.00,,CLR,0.00,VWS V14.00,2013-02-11 06:14:00,
2013-02-11 01:20:00,14.5,9.8,30.39,SW,219,0.0,0.0,81,0.00,,CLR,0.00,VWS V14.00,2013-02-11 06:20:00,
2013-02-11 01:25:00,14.5,9.8,30.39,SW,219,0.0,0.0,81,0.00,,CLR,0.00,VWS V14.00,2013-02-11 06:25:00,
2013-02-11 01:32:00,14.7,10.0,30.39,SW,219,0.0,0.0,81,0.00,,CLR,0.00,VWS V14.00,2013-02-11 06:32:00,
2013-02-11 01:39:00,14.9,10.1,30.39,SW,219,0.0,0.0,81,0.00,,CLR,0.00,VWS V14.00,2013-02-11 06:39:00,
2013-02-11 01:46:00,14.9,10.1,30.39,SW,219,0.0,0.0,81,0.00,,CLR,0.00,VWS V14.00,2013-02-11 06:46:00,
2013-02-11 01:53:00,15.1,10.3,30.39,SW,219,0.0,0.0,81,0.00,,CLR,0.00,VWS V14.00,2013-02-11 06:53:00,
2013-02-11 02:00:00,15.3,10.5,30.39,SW,219,0.0,0.0,81,0.00,,CLR,0.00,VWS V14.00,2013-02-11 07:00:00,
2013-02-11 02:05:00,15.4,10.7,30.36,SW,219,0.0,0.0,81,0.00,,CLR,0.00,VWS V14.00,2013-02-11 07:05:00,
2013-02-11 02:12:00,15.4,10.9,30.36,SW,219,0.0,0.0,82,0.00,,CLR,0.00,VWS V14.00,2013-02-11 07:12:00,
2013-02-11 02:19:00,15.8,11.3,30.33,SW,219,0.0,0.0,82,0.00,,CLR,0.00,VWS V14.00,2013-02-11 07:19:00,
2013-02-11 02:26:00,16.0,11.5,30.33,SW,219,0.0,0.0,82,0.00,,CLR,0.00,VWS V14.00,2013-02-11 07:26:00,
2013-02-11 02:33:00,16.2,11.6,30.36,SW,219,0.0,0.0,82,0.00,,CLR,0.00,VWS V14.00,2013-02-11 07:33:00,
2013-02-11 02:40:00,16.5,12.0,30.36,SW,219,0.0,0.0,82,0.00,,CLR,0.00,VWS V14.00,2013-02-11 07:40:00,
2013-02-11 02:45:00,16.7,12.2,30.36,SW,219,0.0,0.0,82,0.00,,CLR,0.00,VWS V14.00,2013-02-11 07:45:00,
2013-02-11 02:52:00,16.7,12.4,30.33,SW,219,0.0,0.0,83,0.00,,CLR,0.00,VWS V14.00,2013-02-11 07:52:00,
2013-02-11 02:59:00,16.9,12.6,30.33,SW,219,0.0,0.0,83,0.00,,CLR,0.00,VWS V14.00,2013-02-11 07:59:00,
2013-02-11 03:06:00,16.9,12.6,30.33,SW,219,0.0,0.0,83,0.00,,CLR,0.00,VWS V14.00,2013-02-11 08:06:00,
2013-02-11 03:13:00,17.1,12.8,30.33,SW,219,0.0,0.0,83,0.00,,CLR,0.00,VWS V14.00,2013-02-11 08:13:00,
2013-02-11 03:20:00,17.2,13.0,30.33,SW,219,0.0,0.0,83,0.00,,CLR,0.00,VWS V14.00,2013-02-11 08:20:00,
2013-02-11 03:27:00,17.2,13.0,30.33,SW,219,0.0,0.0,83,0.00,,CLR,0.00,VWS V14.00,2013-02-11 08:27:00,
2013-02-11 03:34:00,17.6,13.3,30.33,SW,219,0.0,0.0,83,0.00,,CLR,0.00,VWS V14.00,2013-02-11 08:34:00,
2013-02-11 03:40:00,17.8,13.5,30.33,SW,219,0.0,0.0,83,0.00,,CLR,0.00,VWS V14.00,2013-02-11 08:40:00,
2013-02-11 03:46:00,17.8,13.5,30.33,SW,219,0.0,0.0,83,0.00,,CLR,0.00,VWS V14.00,2013-02-11 08:46:00,
2013-02-11 03:53:00,18.0,13.7,30.33,SW,219,0.0,0.0,83,0.00,,CLR,0.00,VWS V14.00,2013-02-11 08:53:00,
2013-02-11 04:00:00,18.1,13.9,30.33,SW,219,0.0,0.0,83,0.00,,CLR,0.00,VWS V14.00,2013-02-11 09:00:00,
2013-02-11 04:07:00,18.1,13.9,30.30,SW,219,0.0,0.0,83,0.00,,CLR,0.00,VWS V14.00,2013-02-11 09:07:00,
2013-02-11 04:14:00,18.5,14.5,30.30,SW,219,0.0,0.0,84,0.00,,CLR,0.00,VWS V14.00,2013-02-11 09:14:00,
2013-02-11 04:20:00,18.7,14.7,30.33,SW,219,0.0,0.0,84,0.00,,CLR,0.00,VWS V14.00,2013-02-11 09:20:00,
2013-02-11 04:26:00,18.7,14.7,30.33,SW,219,0.0,0.0,84,0.00,,CLR,0.00,VWS V14.00,2013-02-11 09:26:00,
2013-02-11 04:33:00,19.2,15.2,30.30,SW,219,0.0,0.0,84,0.00,,CLR,0.00,VWS V14.00,2013-02-11 09:33:00,
2013-02-11 04:40:00,19.4,15.6,30.30,SW,219,0.0,0.0,85,0.00,,CLR,0.00,VWS V14.00,2013-02-11 09:40:00,
2013-02-11 04:47:00,19.8,15.7,30.30,SW,219,0.0,0.0,84,0.00,,CLR,0.00,VWS V14.00,2013-02-11 09:47:00,
2013-02-11 04:54:00,19.9,15.9,30.30,SW,219,0.0,0.0,84,0.00,,CLR,0.00,VWS V14.00,2013-02-11 09:54:00,
2013-02-11 05:00:00,20.1,16.3,30.30,SW,219,0.0,0.0,85,0.00,,CLR,0.00,VWS V14.00,2013-02-11 10:00:00,
2013-02-11 05:05:00,20.3,16.5,30.30,SW,219,0.0,0.0,85,0.00,,CLR,0.00,VWS V14.00,2013-02-11 10:05:00,
2013-02-11 05:12:00,20.5,16.7,30.30,SW,219,0.0,0.0,85,0.00,,CLR,0.00,VWS V14.00,2013-02-11 10:12:00,
2013-02-11 05:19:00,20.8,17.3,30.30,SW,219,0.0,0.0,86,0.00,,CLR,0.00,VWS V14.00,2013-02-11 10:19:00,
2013-02-11 05:26:00,21.0,17.5,30.30,SW,219,0.0,0.0,86,0.00,,CLR,0.00,VWS V14.00,2013-02-11 10:26:00,
2013-02-11 05:34:00,21.4,17.9,30.30,SW,219,0.0,0.0,86,0.00,,CLR,0.00,VWS V14.00,2013-02-11 10:34:00,
2013-02-11 05:40:00,21.9,18.6,30.30,SW,219,0.0,0.0,87,0.00,,CLR,0.00,VWS V14.00,2013-02-11 10:40:00,
2013-02-11 05:45:00,22.5,19.2,30.30,SW,219,0.0,0.0,87,0.00,,CLR,0.00,VWS V14.00,2013-02-11 10:45:00,
2013-02-11 05:52:00,23.2,20.2,30.30,SW,219,0.0,0.0,88,0.00,,CLR,0.00,VWS V14.00,2013-02-11 10:52:00,
2013-02-11 05:59:00,23.9,21.1,30.30,SW,219,0.0,0.0,89,0.00,,CLR,0.00,VWS V14.00,2013-02-11 10:59:00,
2013-02-11 06:06:00,24.6,22.4,30.30,SW,219,0.0,3.1,91,0.00,,FEW120,0.00,VWS V14.00,2013-02-11 11:06:00,
2013-02-11 06:13:00,25.7,23.7,30.30,SW,219,0.0,0.0,92,0.00,,FEW120,0.00,VWS V14.00,2013-02-11 11:13:00,
2013-02-11 06:20:00,27.0,25.2,30.30,SW,218,0.0,4.0,93,0.00,,FEW120,0.00,VWS V14.00,2013-02-11 11:20:00,
2013-02-11 06:25:00,28.0,26.5,30.30,SW,233,0.0,2.2,94,0.00,,FEW120,0.00,VWS V14.00,2013-02-11 11:25:00,
2013-02-11 06:32:00,28.8,26.7,30.27,WSW,244,0.0,2.7,92,0.00,,FEW120,0.00,VWS V14.00,2013-02-11 11:32:00,
2013-02-11 06:39:00,29.3,26.7,30.27,SSW,200,0.0,4.9,90,0.00,,FEW120,0.00,VWS V14.00,2013-02-11 11:39:00,
2013-02-11 06:46:00,29.5,26.6,30.27,South,183,0.0,0.0,89,0.00,,FEW120,0.00,VWS V14.00,2013-02-11 11:46:00,
2013-02-11 06:53:00,29.5,26.4,30.27,SSE,165,0.0,4.0,88,0.00,,FEW120,0.00,VWS V14.00,2013-02-11 11:53:00,
2013-02-11 07:00:00,29.5,26.1,30.27,SSW,211,0.0,4.0,87,0.00,,FEW120,0.00,VWS V14.00,2013-02-11 12:00:00,
2013-02-11 07:07:00,29.7,26.3,30.27,SSW,211,0.0,0.0,87,0.00,,OVC110,0.00,VWS V14.00,2013-02-11 12:07:00,
2013-02-11 07:14:00,29.8,26.5,30.27,SSW,210,0.0,0.0,87,0.00,,OVC110,0.00,VWS V14.00,2013-02-11 12:14:00,
2013-02-11 07:20:00,30.2,27.1,30.27,South,190,0.0,3.1,88,0.00,,OVC110,0.00,VWS V14.00,2013-02-11 12:20:00,
2013-02-11 07:26:00,30.4,27.3,30.27,SSE,151,0.0,0.0,88,0.00,,OVC110,0.00,VWS V14.00,2013-02-11 12:26:00,
2013-02-11 07:33:00,31.1,28.0,30.27,SSW,208,2.7,5.4,88,0.00,,OVC110,0.00,VWS V14.00,2013-02-11 12:33:00,
2013-02-11 07:40:00,31.6,28.8,30.27,WSW,239,2.7,5.4,89,0.00,,OVC110,0.00,VWS V14.00,2013-02-11 12:40:00,
2013-02-11 07:47:00,32.0,29.1,30.24,SSW,205,0.0,4.9,89,0.00,,OVC110,0.00,VWS V14.00,2013-02-11 12:47:00,
2013-02-11 07:54:00,32.4,29.2,30.24,South,172,0.0,4.9,88,0.00,,OVC110,0.00,VWS V14.00,2013-02-11 12:54:00,
2013-02-11 08:00:00,32.7,29.6,30.24,SSW,202,0.0,4.9,88,0.00,,OVC110,0.00,VWS V14.00,2013-02-11 13:00:00,
2013-02-11 08:06:00,33.1,29.6,30.24,SSW,208,4.9,4.9,87,0.00,,OVC060,0.00,VWS V14.00,2013-02-11 13:06:00,
2013-02-11 08:13:00,33.3,29.8,30.24,SSW,195,0.0,4.9,87,0.00,,OVC060,0.00,VWS V14.00,2013-02-11 13:13:00,
2013-02-11 08:20:00,33.6,29.9,30.21,South,186,2.7,5.4,86,0.00,,OVC060,0.00,VWS V14.00,2013-02-11 13:20:00,
2013-02-11 08:27:00,34.0,30.5,30.21,South,191,0.0,3.6,87,0.00,,OVC060,0.00,VWS V14.00,2013-02-11 13:27:00,
2013-02-11 08:34:00,34.3,30.9,30.21,SSW,210,0.0,4.0,87,0.00,,OVC060,0.00,VWS V14.00,2013-02-11 13:34:00,
2013-02-11 08:40:00,34.5,30.8,30.21,SSW,201,0.0,6.3,86,0.00,,OVC060,0.00,VWS V14.00,2013-02-11 13:40:00,
2013-02-11 08:46:00,34.9,30.8,30.21,SSE,157,6.7,6.7,85,0.00,,OVC060,0.00,VWS V14.00,2013-02-11 13:46:00,
2013-02-11 08:53:00,35.4,30.8,30.21,SSW,204,2.7,7.6,83,0.00,,OVC060,0.00,VWS V14.00,2013-02-11 13:53:00,
2013-02-11 09:00:00,35.8,31.1,30.21,SW,235,5.4,8.3,83,0.00,,OVC060,0.00,VWS V14.00,2013-02-11 14:00:00,
2013-02-11 09:07:00,36.3,31.4,30.21,South,189,4.0,8.3,82,0.00,,,0.00,VWS V14.00,2013-02-11 14:07:00,
2013-02-11 09:14:00,36.7,31.1,30.21,SW,228,12.3,12.3,80,0.00,,,0.00,VWS V14.00,2013-02-11 14:14:00,
2013-02-11 09:20:00,37.0,31.1,30.18,South,171,2.7,12.3,79,0.00,,,0.00,VWS V14.00,2013-02-11 14:20:00,
2013-02-11 09:26:00,37.0,30.8,30.18,SW,216,3.1,7.6,78,0.00,,,0.00,VWS V14.00,2013-02-11 14:26:00,
2013-02-11 09:33:00,36.7,29.5,30.18,SSW,210,2.7,6.3,75,0.00,,,0.00,VWS V14.00,2013-02-11 14:33:00,
2013-02-11 09:40:00,36.7,30.8,30.18,SW,230,3.1,8.1,79,0.00,,,0.00,VWS V14.00,2013-02-11 14:40:00,
2013-02-11 09:47:00,36.7,31.4,30.18,South,183,6.3,10.1,81,0.00,,,0.00,VWS V14.00,2013-02-11 14:47:00,
2013-02-11 09:54:00,36.7,31.4,30.15,South,179,3.6,10.1,81,0.00,,,0.00,VWS V14.00,2013-02-11 14:54:00,
2013-02-11 10:00:00,36.7,32.0,30.15,SSW,212,8.3,11.0,83,0.00,,,0.00,VWS V14.00,2013-02-11 15:00:00,
2013-02-11 10:06:00,36.7,32.0,30.15,SW,224,5.8,8.3,83,0.00,,,0.00,VWS V14.00,2013-02-11 15:06:00,
2013-02-11 10:13:00,36.7,32.6,30.15,SW,232,4.0,5.8,85,0.00,,,0.00,VWS V14.00,2013-02-11 15:13:00,
2013-02-11 10:20:00,36.7,32.3,30.12,South,189,8.3,9.2,84,0.00,,,0.00,VWS V14.00,2013-02-11 15:20:00,
2013-02-11 10:27:00,36.7,32.9,30.12,SSE,160,3.6,8.3,86,0.04,,,0.04,VWS V14.00,2013-02-11 15:27:00,
2013-02-11 10:34:00,36.7,32.6,30.12,SSE,167,10.5,10.5,85,0.04,,,0.04,VWS V14.00,2013-02-11 15:34:00,
2013-02-11 10:40:00,36.7,32.9,30.12,SW,221,5.4,10.5,86,0.04,,,0.04,VWS V14.00,2013-02-11 15:40:00,
2013-02-11 10:46:00,36.9,33.4,30.12,South,189,4.0,8.3,87,0.04,,-RA,0.04,VWS V14.00,2013-02-11 15:46:00,
2013-02-11 10:53:00,37.0,34.4,30.09,SSW,199,12.8,12.8,90,0.04,,-RA,0.04,VWS V14.00,2013-02-11 15:53:00,
2013-02-11 11:00:00,37.4,35.0,30.09,SSE,149,5.4,12.8,91,0.04,,-RA,0.04,VWS V14.00,2013-02-11 16:00:00,
2013-02-11 11:07:00,37.6,35.5,30.09,SSE,168,2.2,8.7,92,0.04,,-RA,0.04,VWS V14.00,2013-02-11 16:07:00,
2013-02-11 11:14:00,37.6,35.5,30.09,SSE,149,2.7,6.3,92,0.04,,-RA,0.04,VWS V14.00,2013-02-11 16:14:00,
2013-02-11 11:20:00,37.8,35.9,30.06,West,263,10.5,10.5,93,0.04,,-RA,0.04,VWS V14.00,2013-02-11 16:20:00,
2013-02-11 11:26:00,37.9,36.4,30.06,South,173,4.0,10.5,94,0.00,,-RA,0.04,VWS V14.00,2013-02-11 16:26:00,
2013-02-11 11:33:00,38.3,36.7,30.06,SSW,203,4.0,8.3,94,0.00,,-RA,0.04,VWS V14.00,2013-02-11 16:33:00,
2013-02-11 11:40:00,38.5,37.2,30.06,WSW,257,6.3,9.6,95,0.00,,-RA,0.04,VWS V14.00,2013-02-11 16:40:00,
2013-02-11 11:47:00,38.7,37.3,30.03,SW,215,8.1,9.6,95,0.00,,-RA,0.04,VWS V14.00,2013-02-11 16:47:00,
2013-02-11 11:54:00,38.7,37.3,30.03,SW,216,7.6,8.3,95,0.00,,-RA,0.04,VWS V14.00,2013-02-11 16:54:00,
2013-02-11 12:00:00,38.7,37.1,30.03,SSW,203,5.8,10.5,94,0.00,,-RA,0.04,VWS V14.00,2013-02-11 17:00:00,
2013-02-11 12:05:00,38.8,37.3,30.00,ESE,103,3.1,8.1,94,0.04,,-RA,0.08,VWS V14.00,2013-02-11 17:05:00,
2013-02-11 12:12:00,38.8,37.5,30.00,WSW,250,5.4,7.2,95,0.04,,-RA,0.08,VWS V14.00,2013-02-11 17:12:00,
2013-02-11 12:19:00,38.8,37.5,30.00,South,174,4.9,8.7,95,0.04,,-RA,0.08,VWS V14.00,2013-02-11 17:19:00,
2013-02-11 12:26:00,39.2,37.9,30.00,West,262,5.8,8.3,95,0.04,,-RA,0.08,VWS V14.00,2013-02-11 17:26:00,
2013-02-11 12:34:00,39.2,38.2,29.97,SSW,208,7.6,8.3,96,0.04,,-RA,0.08,VWS V14.00,2013-02-11 17:34:00,
2013-02-11 12:40:00,39.2,38.2,29.97,West,265,4.0,10.5,96,0.04,,-RA,0.08,VWS V14.00,2013-02-11 17:40:00,
2013-02-11 12:45:00,39.4,38.3,29.97,SSW,206,5.4,5.8,96,0.04,,-RA,0.08,VWS V14.00,2013-02-11 17:45:00,
2013-02-11 12:52:00,39.4,38.3,29.94,SW,226,6.3,8.1,96,0.04,,-RA,0.08,VWS V14.00,2013-02-11 17:52:00,
2013-02-11 12:59:00,39.4,38.6,29.94,SE,139,5.8,8.7,97,0.08,,-RA,0.12,VWS V14.00,2013-02-11 17:59:00,
2013-02-11 13:06:00,39.6,39.0,29.94,South,187,2.2,10.1,98,0.08,,-RA,0.12,VWS V14.00,2013-02-11 18:06:00,
2013-02-11 13:13:00,39.6,39.0,29.94,SSW,213,4.0,6.3,98,0.04,,-RA,0.12,VWS V14.00,2013-02-11 18:13:00,
2013-02-11 13:20:00,39.4,38.9,29.91,SW,230,9.6,9.6,98,0.04,,-RA,0.12,VWS V14.00,2013-02-11 18:20:00,
2013-02-11 13:25:00,39.6,39.3,29.91,SW,224,4.0,9.6,99,0.08,,-RA,0.16,VWS V14.00,2013-02-11 18:25:00,
2013-02-11 13:32:00,39.7,39.5,29.91,South,172,8.1,8.1,99,0.08,,-RA,0.16,VWS V14.00,2013-02-11 18:32:00,
2013-02-11 13:39:00,39.9,39.9,29.91,SSW,212,8.3,8.3,100,0.08,,-RA,0.16,VWS V14.00,2013-02-11 18:39:00,
2013-02-11 13:46:00,40.1,40.1,29.91,SW,220,2.7,8.3,100,0.08,,-RA,0.16,VWS V14.00,2013-02-11 18:46:00,
2013-02-11 13:56:00,40.3,40.3,29.88,SW,222,7.6,10.5,100,0.08,,-RA,0.16,VWS V14.00,2013-02-11 18:56:00,
2013-02-11 14:03:00,40.5,40.5,29.88,SSW,193,5.4,5.8,100,0.04,,-RA,0.16,VWS V14.00,2013-02-11 19:03:00,
2013-02-11 14:10:00,40.6,40.6,29.88,WSW,239,3.6,8.1,100,0.04,,-RA,0.16,VWS V14.00,2013-02-11 19:10:00,
2013-02-11 14:17:00,40.6,40.6,29.88,SSW,205,6.3,10.1,100,0.08,,-RA,0.20,VWS V14.00,2013-02-11 19:17:00,
2013-02-11 14:24:00,40.8,40.8,29.88,SSE,156,4.0,5.8,100,0.08,,-RA,0.20,VWS V14.00,2013-02-11 19:24:00,
2013-02-11 14:30:00,41.0,41.0,29.88,SW,215,4.0,6.3,100,0.08,,-RA,0.20,VWS V14.00,2013-02-11 19:30:00,
2013-02-11 14:36:00,41.2,41.2,29.85,SSE,153,3.1,5.8,100,0.04,,-RA,0.20,VWS V14.00,2013-02-11 19:36:00,
2013-02-11 14:43:00,41.2,41.2,29.85,SW,224,5.4,5.4,100,0.04,,-RA,0.20,VWS V14.00,2013-02-11 19:43:00,
2013-02-11 14:50:00,41.2,41.2,29.85,South,185,8.7,8.7,100,0.04,,-RA,0.20,VWS V14.00,2013-02-11 19:50:00,
2013-02-11 14:57:00,41.4,41.4,29.85,SSW,202,2.2,8.7,100,0.04,,-RA,0.20,VWS V14.00,2013-02-11 19:57:00,
2013-02-11 15:04:00,41.4,41.4,29.83,South,175,0.0,7.6,100,0.04,,,0.20,VWS V14.00,2013-02-11 20:04:00,
2013-02-11 15:10:00,41.5,41.5,29.83,SSW,195,3.1,7.6,100,0.04,,,0.20,VWS V14.00,2013-02-11 20:10:00,
2013-02-11 15:15:00,41.5,41.5,29.83,SE,133,3.1,4.0,100,0.04,,,0.20,VWS V14.00,2013-02-11 20:15:00,
2013-02-11 15:22:00,41.4,41.4,29.83,South,186,3.6,5.8,100,0.00,,,0.20,VWS V14.00,2013-02-11 20:22:00,
2013-02-11 15:30:00,41.2,41.2,29.83,South,183,0.0,5.8,100,0.04,,,0.24,VWS V14.00,2013-02-11 20:30:00,
2013-02-11 15:37:00,41.2,41.2,29.83,SE,145,2.2,3.6,100,0.04,,,0.24,VWS V14.00,2013-02-11 20:37:00,
2013-02-11 15:44:00,41.2,41.2,29.83,SW,219,0.0,3.1,100,0.04,,,0.24,VWS V14.00,2013-02-11 20:44:00,
2013-02-11 15:50:00,41.4,41.4,29.80,SSE,157,0.0,3.6,100,0.04,,,0.24,VWS V14.00,2013-02-11 20:50:00,
2013-02-11 15:55:00,41.4,41.4,29.80,SSE,157,0.0,0.0,100,0.08,,,0.28,VWS V14.00,2013-02-11 20:55:00,
2013-02-11 16:02:00,41.5,41.5,29.80,South,179,0.0,0.0,100,0.08,,-RA,0.28,VWS V14.00,2013-02-11 21:02:00,
2013-02-11 16:09:00,41.7,41.7,29.80,SW,230,0.0,3.1,100,0.08,,-RA,0.28,VWS V14.00,2013-02-11 21:09:00,
2013-02-11 16:16:00,41.7,41.7,29.80,SSW,210,0.0,3.6,100,0.08,,-RA,0.28,VWS V14.00,2013-02-11 21:16:00,
2013-02-11 16:24:00,42.1,42.1,29.80,SE,146,0.0,0.0,100,0.08,,-RA,0.28,VWS V14.00,2013-02-11 21:24:00,
2013-02-11 16:30:00,41.9,41.9,29.80,SSE,165,0.0,4.9,100,0.08,,-RA,0.28,VWS V14.00,2013-02-11 21:30:00,
2013-02-11 16:35:00,41.7,41.7,29.80,SSE,165,0.0,0.0,100,0.04,,-RA,0.28,VWS V14.00,2013-02-11 21:35:00,
2013-02-11 16:42:00,41.5,41.5,29.80,SSE,165,0.0,0.0,100,0.08,,-RA,0.31,VWS V14.00,2013-02-11 21:42:00,
2013-02-11 16:49:00,42.1,42.1,29.77,South,190,0.0,3.6,100,0.08,,-RA,0.31,VWS V14.00,2013-02-11 21:49:00,
2013-02-11 16:56:00,42.1,42.1,29.77,SSE,166,0.0,3.1,100,0.08,,-RA,0.31,VWS V14.00,2013-02-11 21:56:00,
2013-02-11 17:03:00,41.7,41.7,29.77,SSE,166,0.0,0.0,100,0.04,,,0.31,VWS V14.00,2013-02-11 22:03:00,
2013-02-11 17:10:00,41.7,41.7,29.77,SSE,166,0.0,0.0,100,0.04,,,0.31,VWS V14.00,2013-02-11 22:10:00,
2013-02-11 17:15:00,41.7,41.7,29.77,SW,220,4.0,4.0,100,0.04,,,0.31,VWS V14.00,2013-02-11 22:15:00,
2013-02-11 17:22:00,41.0,41.0,29.77,SSW,193,0.0,0.0,100,0.04,,,0.31,VWS V14.00,2013-02-11 22:22:00,
2013-02-11 17:29:00,41.4,41.4,29.77,South,191,0.0,3.1,100,0.04,,,0.31,VWS V14.00,2013-02-11 22:29:00,
2013-02-11 17:36:00,41.7,41.7,29.74,South,191,0.0,3.1,100,0.04,,,0.31,VWS V14.00,2013-02-11 22:36:00,
2013-02-11 17:43:00,41.2,41.2,29.74,South,191,0.0,0.0,100,0.00,,,0.31,VWS V14.00,2013-02-11 22:43:00,
2013-02-11 17:50:00,41.0,41.0,29.74,South,191,0.0,0.0,100,0.00,,,0.31,VWS V14.00,2013-02-11 22:50:00,
2013-02-11 17:55:00,41.0,41.0,29.74,South,191,0.0,0.0,100,0.00,,,0.31,VWS V14.00,2013-02-11 22:55:00,
2013-02-11 18:02:00,41.2,41.2,29.74,South,191,0.0,0.0,100,0.00,,,0.31,VWS V14.00,2013-02-11 23:02:00,
2013-02-11 18:09:00,41.5,41.5,29.74,SSE,154,2.2,4.0,100,0.00,,,0.31,VWS V14.00,2013-02-11 23:09:00,
2013-02-11 18:16:00,40.6,40.6,29.74,SSW,212,0.0,4.9,100,0.00,,,0.31,VWS V14.00,2013-02-11 23:16:00,
2013-02-11 18:23:00,40.3,40.3,29.74,SSW,212,0.0,0.0,100,0.00,,,0.31,VWS V14.00,2013-02-11 23:23:00,
2013-02-11 18:30:00,40.5,40.5,29.74,SSW,212,0.0,0.0,100,0.00,,,0.31,VWS V14.00,2013-02-11 23:30:00,
2013-02-11 18:37:00,40.3,40.3,29.71,SSW,212,0.0,0.0,100,0.00,,,0.31,VWS V14.00,2013-02-11 23:37:00,
2013-02-11 18:44:00,39.2,39.2,29.71,SSW,212,0.0,0.0,100,0.00,,,0.31,VWS V14.00,2013-02-11 23:44:00,
2013-02-11 18:50:00,40.3,40.3,29.71,SSE,157,3.1,4.0,100,0.00,,,0.31,VWS V14.00,2013-02-11 23:50:00,
2013-02-11 18:56:00,41.4,41.4,29.71,South,178,0.0,3.6,100,0.00,,,0.31,VWS V14.00,2013-02-11 23:56:00,
2013-02-11 19:03:00,41.0,41.0,29.74,SSW,203,0.0,3.6,100,0.00,,,0.31,VWS V14.00,2013-02-12 00:03:00,
2013-02-11 19:10:00,40.5,40.5,29.74,SSW,203,0.0,3.6,100,0.00,,,0.31,VWS V14.00,2013-02-12 00:10:00,
2013-02-11 19:17:00,40.6,40.6,29.71,SSW,203,0.0,0.0,100,0.00,,,0.31,VWS V14.00,2013-02-12 00:17:00,
2013-02-11 19:24:00,40.8,40.8,29.71,SSW,203,0.0,0.0,100,0.00,,,0.31,VWS V14.00,2013-02-12 00:24:00,
2013-02-11 19:30:00,39.7,39.7,29.71,SSW,203,0.0,0.0,100,0.00,,,0.31,VWS V14.00,2013-02-12 00:30:00,
2013-02-11 19:36:00,39.0,39.0,29.71,NNW,332,2.7,2.7,100,0.00,,,0.31,VWS V14.00,2013-02-12 00:36:00,
2013-02-11 19:43:00,38.5,38.5,29.71,North,357,2.2,3.6,100,0.00,,,0.31,VWS V14.00,2013-02-12 00:43:00,
2013-02-11 19:50:00,38.3,38.3,29.71,North,353,4.0,4.0,100,0.00,,,0.31,VWS V14.00,2013-02-12 00:50:00,
2013-02-11 19:57:00,37.8,37.8,29.71,North,9,0.0,4.0,100,0.00,,,0.31,VWS V14.00,2013-02-12 00:57:00,
2013-02-11 20:04:00,37.4,37.4,29.71,North,0,0.0,4.0,100,0.00,,,0.31,VWS V14.00,2013-02-12 01:04:00,
2013-02-11 20:10:00,37.0,37.0,29.71,North,0,0.0,4.0,100,0.00,,,0.31,VWS V14.00,2013-02-12 01:10:00,
2013-02-11 20:16:00,36.9,36.9,29.71,North,0,0.0,0.0,100,0.00,,,0.31,VWS V14.00,2013-02-12 01:16:00,
2013-02-11 20:23:00,36.9,36.9,29.68,North,0,0.0,0.0,100,0.00,,,0.31,VWS V14.00,2013-02-12 01:23:00,
2013-02-11 20:30:00,36.3,36.3,29.68,North,0,2.2,5.8,100,0.00,,,0.31,VWS V14.00,2013-02-12 01:30:00,
2013-02-11 20:37:00,36.1,36.1,29.68,NNE,16,3.1,5.8,100,0.00,,,0.31,VWS V14.00,2013-02-12 01:37:00,
2013-02-11 20:44:00,36.0,36.0,29.68,NNE,16,0.0,0.0,100,0.00,,,0.31,VWS V14.00,2013-02-12 01:44:00,
2013-02-11 20:50:00,36.0,36.0,29.68,NNE,16,0.0,2.7,100,0.00,,,0.31,VWS V14.00,2013-02-12 01:50:00,
2013-02-11 20:55:00,35.8,35.8,29.68,NNE,16,0.0,2.7,100,0.00,,,0.31,VWS V14.00,2013-02-12 01:55:00,
2013-02-11 21:02:00,35.8,35.8,29.68,NNE,16,0.0,0.0,100,0.00,,,0.31,VWS V14.00,2013-02-12 02:02:00,
2013-02-11 21:09:00,35.6,35.6,29.68,NNE,16,0.0,0.0,100,0.00,,,0.31,VWS V14.00,2013-02-12 02:09:00,
2013-02-11 21:17:00,35.6,35.6,29.68,NNE,16,0.0,0.0,100,0.00,,,0.31,VWS V14.00,2013-02-12 02:17:00,
2013-02-11 21:24:00,35.6,35.6,29.68,NNE,16,0.0,0.0,100,0.00,,,0.31,VWS V14.00,2013-02-12 02:24:00,
2013-02-11 21:30:00,35.4,35.4,29.68,NNE,16,0.0,0.0,100,0.00,,,0.31,VWS V14.00,2013-02-12 02:30:00,
2013-02-11 21:35:00,35.6,35.6,29.68,NNE,16,0.0,0.0,100,0.00,,,0.31,VWS V14.00,2013-02-12 02:35:00,
2013-02-11 21:42:00,35.6,35.6,29.68,NNE,16,0.0,0.0,100,0.00,,,0.31,VWS V14.00,2013-02-12 02:42:00,
2013-02-11 21:49:00,35.4,35.4,29.65,NNE,16,0.0,0.0,100,0.00,,,0.31,VWS V14.00,2013-02-12 02:49:00,
2013-02-11 21:56:00,35.4,35.4,29.65,NNE,16,0.0,0.0,100,0.00,,,0.31,VWS V14.00,2013-02-12 02:56:00,
2013-02-11 22:03:00,35.1,35.1,29.65,NNE,16,0.0,0.0,100,0.00,,,0.31,VWS V14.00,2013-02-12 03:03:00,
2013-02-11 22:10:00,35.1,35.1,29.65,NNE,16,0.0,0.0,100,0.00,,,0.31,VWS V14.00,2013-02-12 03:10:00,
2013-02-11 22:15:00,35.1,35.1,29.65,NNE,16,0.0,0.0,100,0.00,,,0.31,VWS V14.00,2013-02-12 03:15:00,
2013-02-11 22:22:00,35.6,35.6,29.68,NNE,16,2.7,3.6,100,0.00,,,0.31,VWS V14.00,2013-02-12 03:22:00,
2013-02-11 22:29:00,35.8,35.8,29.68,North,353,0.0,4.9,100,0.00,,,0.31,VWS V14.00,2013-02-12 03:29:00,
2013-02-11 22:36:00,35.8,35.8,29.68,North,353,3.1,3.1,100,0.00,,,0.31,VWS V14.00,2013-02-12 03:36:00,
2013-02-11 22:43:00,35.6,35.6,29.68,North,353,2.2,3.1,100,0.00,,,0.31,VWS V14.00,2013-02-12 03:43:00,
2013-02-11 22:50:00,35.6,35.6,29.68,North,353,0.0,3.1,100,0.00,,,0.31,VWS V14.00,2013-02-12 03:50:00,
2013-02-11 22:57:00,35.6,35.6,29.68,North,353,0.0,0.0,100,0.00,,,0.31,VWS V14.00,2013-02-12 03:57:00,
2013-02-11 23:04:00,35.6,35.6,29.65,North,353,0.0,0.0,100,0.00,,,0.31,VWS V14.00,2013-02-12 04:04:00,
2013-02-11 23:10:00,35.6,35.6,29.65,North,353,0.0,0.0,100,0.00,,,0.31,VWS V14.00,2013-02-12 04:10:00,
2013-02-11 23:16:00,35.6,35.6,29.65,North,353,0.0,0.0,100,0.00,,,0.31,VWS V14.00,2013-02-12 04:16:00,
2013-02-11 23:23:00,35.2,35.2,29.65,North,353,0.0,0.0,100,0.00,,,0.31,VWS V14.00,2013-02-12 04:23:00,
2013-02-11 23:30:00,35.6,35.6,29.65,North,353,0.0,0.0,100,0.00,,,0.31,VWS V14.00,2013-02-12 04:30:00,
2013-02-11 23:37:00,35.8,35.8,29.65,North,353,0.0,0.0,100,0.00,,,0.31,VWS V14.00,2013-02-12 04:37:00,
2013-02-11 23:44:00,35.8,35.8,29.65,North,353,0.0,0.0,100,0.00,,,0.31,VWS V14.00,2013-02-12 04:44:00,
2013-02-11 23:50:00,35.8,35.8,29.68,North,353,0.0,0.0,100,0.00,,,0.31,VWS V14.00,2013-02-12 04:50:00,
2013-02-11 23:56:00,35.8,35.8,29.68,North,353,0.0,0.0,100,0.00,,,0.31,VWS V14.00,2013-02-12 04:56:00,